createdAt,value
2019-04-30T00:01:18.847Z,11.23
2019-04-30T00:04:05.642Z,11.57
2019-04-30T00:06:39.513Z,11.40
2019-04-30T00:09:09.674Z,11.13
2019-04-30T00:11:39.217Z,12.27
2019-04-30T00:14:09.127Z,11.27
2019-04-30T00:16:40.030Z,11.03
2019-04-30T00:19:10.613Z,10.77
2019-04-30T00:21:41.487Z,9.80
2019-04-30T00:24:11.448Z,8.97
2019-04-30T00:26:46.805Z,9.57
2019-04-30T00:29:19.219Z,9.80
2019-04-30T00:31:44.685Z,10.13
2019-04-30T00:34:15.994Z,9.43
2019-04-30T00:36:46.010Z,9.70
2019-04-30T00:39:16.764Z,9.97
2019-04-30T00:41:47.583Z,9.97
2019-04-30T00:44:20.020Z,9.23
2019-04-30T00:46:49.302Z,8.97
2019-04-30T00:49:23.129Z,9.27
2019-04-30T00:51:54.690Z,8.77
2019-04-30T00:54:22.530Z,8.60
2019-04-30T00:56:52.623Z,8.77
2019-04-30T00:59:22.478Z,9.10
2019-04-30T01:02:11.932Z,8.60
2019-04-30T01:04:50.702Z,8.63
2019-04-30T01:07:20.789Z,8.57
2019-04-30T01:09:50.670Z,8.57
2019-04-30T01:12:27.572Z,8.03
2019-04-30T01:17:18.873Z,7.77
2019-04-30T01:19:51.064Z,8.63
2019-04-30T01:22:27.841Z,8.10
2019-04-30T01:24:52.114Z,7.23
2019-04-30T01:27:22.212Z,7.60
2019-04-30T01:29:52.063Z,7.90
2019-04-30T01:32:22.304Z,7.77
2019-04-30T01:34:53.773Z,7.40
2019-04-30T01:37:28.260Z,7.43
2019-04-30T01:39:55.263Z,7.07
2019-04-30T01:42:25.588Z,7.03
2019-04-30T01:44:55.409Z,6.50
2019-04-30T01:47:27.685Z,7.10
2019-04-30T01:50:00.984Z,7.20
2019-04-30T01:52:49.373Z,5.80
2019-04-30T01:55:20.807Z,5.10
2019-04-30T01:57:59.666Z,6.30
2019-04-30T02:00:51.138Z,5.00
2019-04-30T02:03:21.377Z,4.50
2019-04-30T02:05:51.437Z,5.47
2019-04-30T02:08:21.397Z,5.43
2019-04-30T02:10:51.458Z,6.13
2019-04-30T02:13:21.392Z,5.93
2019-04-30T02:15:51.319Z,5.80
2019-04-30T02:18:21.184Z,5.70
2019-04-30T02:20:51.050Z,6.20
2019-04-30T02:23:20.990Z,5.80
2019-04-30T02:25:50.891Z,5.80
2019-04-30T02:28:20.685Z,6.27
2019-04-30T02:30:50.836Z,5.90
2019-04-30T02:33:21.424Z,5.83
2019-04-30T02:36:15.854Z,5.53
2019-04-30T02:38:49.460Z,6.70
2019-04-30T02:41:21.998Z,5.43
2019-04-30T02:43:53.979Z,5.80
2019-04-30T02:46:25.431Z,5.90
2019-04-30T02:48:59.797Z,5.17
2019-04-30T02:51:32.042Z,5.20
2019-04-30T02:54:29.464Z,4.87
2019-04-30T02:57:07.939Z,4.93
2019-04-30T02:59:56.655Z,4.90
2019-04-30T03:02:29.129Z,5.33
2019-04-30T03:05:00.280Z,5.20
2019-04-30T03:07:30.654Z,5.17
2019-04-30T03:10:00.514Z,5.33
2019-04-30T03:12:33.724Z,5.17
2019-04-30T03:15:02.571Z,5.87
2019-04-30T03:17:39.460Z,5.83
2019-04-30T03:20:34.701Z,5.33
2019-04-30T03:23:02.079Z,5.27
2019-04-30T03:25:30.106Z,5.77
2019-04-30T03:28:00.428Z,5.50
2019-04-30T03:30:31.991Z,6.00
2019-04-30T03:33:02.982Z,5.37
2019-04-30T03:35:33.269Z,5.67
2019-04-30T03:38:03.197Z,5.93
2019-04-30T03:40:33.035Z,5.50
2019-04-30T03:43:03.293Z,5.90
2019-04-30T03:45:33.866Z,5.43
2019-04-30T03:48:03.770Z,5.67
2019-04-30T03:50:49.214Z,5.80
2019-04-30T03:53:05.640Z,5.53
2019-04-30T03:55:35.603Z,5.57
2019-04-30T03:58:05.911Z,5.37
2019-04-30T04:00:50.196Z,5.23
2019-04-30T04:03:20.503Z,5.90
2019-04-30T04:06:12.794Z,6.00
2019-04-30T04:09:01.493Z,5.70
2019-04-30T04:11:35.349Z,5.73
2019-04-30T04:14:05.310Z,5.87
2019-04-30T04:16:35.232Z,5.37
2019-04-30T04:19:05.073Z,5.43
2019-04-30T04:21:35.009Z,5.60
2019-04-30T04:24:04.978Z,5.10
2019-04-30T04:26:34.832Z,4.93
2019-04-30T04:29:04.984Z,5.50
2019-04-30T04:31:34.915Z,4.90
2019-04-30T04:34:05.113Z,4.80
2019-04-30T04:36:35.246Z,4.53
2019-04-30T04:39:09.696Z,5.03
2019-04-30T04:41:39.877Z,4.73
2019-04-30T04:44:13.003Z,5.07
2019-04-30T04:46:41.931Z,4.87
2019-04-30T04:49:11.812Z,4.60
2019-04-30T04:51:42.425Z,4.70
2019-04-30T04:54:12.599Z,4.90
2019-04-30T04:56:42.500Z,5.23
2019-04-30T04:59:12.322Z,4.60
2019-04-30T05:01:42.226Z,4.90
2019-04-30T05:04:12.227Z,4.50
2019-04-30T05:06:42.454Z,5.30
2019-04-30T05:09:12.297Z,5.40
2019-04-30T05:11:42.162Z,4.97
2019-04-30T05:14:12.053Z,5.10
2019-04-30T05:16:41.921Z,4.93
2019-04-30T05:19:11.830Z,5.10
2019-04-30T05:21:44.672Z,5.20
2019-04-30T05:24:13.450Z,4.53
2019-04-30T05:26:43.443Z,4.83
2019-04-30T05:29:13.282Z,4.50
2019-04-30T05:31:43.138Z,4.80
2019-04-30T05:34:12.996Z,5.10
2019-04-30T05:36:43.226Z,5.20
2019-04-30T05:39:13.070Z,5.60
2019-04-30T05:41:42.985Z,5.20
2019-04-30T05:44:12.841Z,5.83
2019-04-30T05:46:42.690Z,5.43
2019-04-30T05:49:12.556Z,5.47
2019-04-30T05:51:52.764Z,5.63
2019-04-30T05:54:14.387Z,5.53
2019-04-30T05:56:44.192Z,5.70
2019-04-30T05:59:14.170Z,5.47
2019-04-30T06:01:48.733Z,4.93
2019-04-30T06:04:15.729Z,5.90
2019-04-30T06:06:45.621Z,5.20
2019-04-30T06:09:31.644Z,5.40
2019-04-30T06:12:12.903Z,5.23
2019-04-30T06:14:51.786Z,5.07
2019-04-30T06:17:21.509Z,5.40
2019-04-30T06:19:51.751Z,5.87
2019-04-30T06:22:22.452Z,4.77
2019-04-30T06:24:52.511Z,5.20
2019-04-30T06:27:22.946Z,4.97
2019-04-30T06:29:53.100Z,5.00
2019-04-30T06:32:23.240Z,4.60
2019-04-30T06:34:53.222Z,5.30
2019-04-30T06:37:23.711Z,5.23
2019-04-30T06:39:53.868Z,5.20
2019-04-30T06:42:24.553Z,5.17
2019-04-30T06:44:54.579Z,5.03
2019-04-30T06:47:32.920Z,5.10
2019-04-30T06:49:56.693Z,4.93
2019-04-30T06:52:26.855Z,4.70
2019-04-30T06:54:57.062Z,4.90
2019-04-30T06:57:26.960Z,5.07
2019-04-30T06:59:56.922Z,5.03
2019-04-30T07:02:26.773Z,4.73
2019-04-30T07:04:58.709Z,4.70
2019-04-30T07:07:37.062Z,5.20
2019-04-30T07:10:29.440Z,4.67
2019-04-30T07:13:11.177Z,5.00
2019-04-30T07:15:41.056Z,5.10
2019-04-30T07:18:11.066Z,5.07
2019-04-30T07:20:40.933Z,4.97
2019-04-30T07:23:10.826Z,5.00
2019-04-30T07:25:41.023Z,4.90
2019-04-30T07:28:10.900Z,5.00
2019-04-30T07:30:40.732Z,5.03
2019-04-30T07:33:10.652Z,4.37
2019-04-30T07:35:40.591Z,4.90
2019-04-30T07:38:10.781Z,5.10
2019-04-30T07:40:41.087Z,5.00
2019-04-30T07:43:11.223Z,5.07
2019-04-30T07:45:41.057Z,4.53
2019-04-30T07:48:10.934Z,4.60
2019-04-30T07:50:41.862Z,4.50
2019-04-30T07:53:12.711Z,4.13
2019-04-30T07:55:43.342Z,4.20
2019-04-30T07:58:13.335Z,4.47
2019-04-30T08:00:43.196Z,3.93
2019-04-30T08:03:30.112Z,4.00
2019-04-30T08:06:00.185Z,3.90
2019-04-30T08:08:30.784Z,3.70
2019-04-30T08:11:01.190Z,3.80
2019-04-30T08:13:32.637Z,3.73
2019-04-30T08:16:03.149Z,3.57
2019-04-30T08:18:33.186Z,3.87
2019-04-30T08:21:03.207Z,3.53
2019-04-30T08:23:36.834Z,3.50
2019-04-30T08:26:05.393Z,3.90
2019-04-30T08:28:35.309Z,3.87
2019-04-30T08:31:05.309Z,4.03
2019-04-30T08:33:35.447Z,3.73
2019-04-30T08:36:05.408Z,3.43
2019-04-30T08:38:35.372Z,3.93
2019-04-30T08:41:06.442Z,3.50
2019-04-30T08:43:36.325Z,3.80
2019-04-30T08:46:06.437Z,3.97
2019-04-30T08:48:49.941Z,3.97
2019-04-30T08:51:09.935Z,3.70
2019-04-30T08:53:41.082Z,3.70
2019-04-30T08:56:11.717Z,3.63
2019-04-30T08:58:41.797Z,3.83
2019-04-30T09:01:12.097Z,3.37
2019-04-30T09:03:42.232Z,3.80
2019-04-30T09:06:17.073Z,3.83
2019-04-30T09:08:49.067Z,4.30
2019-04-30T09:11:27.123Z,4.33
2019-04-30T09:13:51.109Z,3.37
2019-04-30T09:16:20.987Z,3.77
2019-04-30T09:18:50.868Z,3.70
2019-04-30T09:21:21.058Z,3.50
2019-04-30T09:23:52.811Z,4.00
2019-04-30T09:26:22.831Z,3.60
2019-04-30T09:28:52.831Z,3.67
2019-04-30T09:31:22.674Z,3.57
2019-04-30T09:33:52.883Z,3.50
2019-04-30T09:36:22.823Z,3.90
2019-04-30T09:38:52.701Z,3.70
2019-04-30T09:41:23.259Z,4.00
2019-04-30T09:43:53.161Z,3.57
2019-04-30T09:46:27.021Z,3.90
2019-04-30T09:48:54.750Z,3.80
2019-04-30T09:51:25.183Z,3.87
2019-04-30T09:53:59.499Z,3.60
2019-04-30T09:56:29.337Z,3.57
2019-04-30T09:58:59.310Z,4.00
2019-04-30T10:01:32.355Z,3.97
2019-04-30T10:04:01.631Z,3.90
2019-04-30T10:06:39.694Z,4.00
2019-04-30T10:09:04.850Z,3.73
2019-04-30T10:11:56.654Z,4.33
2019-04-30T10:14:26.758Z,4.10
2019-04-30T10:17:18.392Z,4.07
2019-04-30T10:19:49.195Z,4.30
2019-04-30T10:22:19.164Z,3.90
2019-04-30T10:24:49.503Z,3.97
2019-04-30T10:27:20.045Z,3.97
2019-04-30T10:29:51.231Z,3.83
2019-04-30T10:32:21.112Z,3.97
2019-04-30T10:34:51.192Z,4.30
2019-04-30T10:37:21.514Z,4.10
2019-04-30T10:39:51.644Z,3.93
2019-04-30T10:42:22.576Z,4.20
2019-04-30T10:44:52.410Z,3.83
2019-04-30T10:47:22.224Z,4.00
2019-04-30T10:49:52.436Z,4.00
2019-04-30T10:52:22.351Z,4.33
2019-04-30T10:54:52.230Z,4.40
2019-04-30T10:57:22.762Z,4.17
2019-04-30T10:59:52.653Z,4.20
2019-04-30T11:02:22.679Z,3.67
2019-04-30T11:04:53.144Z,4.40
2019-04-30T11:07:23.047Z,4.10
2019-04-30T11:09:52.974Z,4.03
2019-04-30T11:12:23.225Z,3.87
2019-04-30T11:14:53.130Z,3.70
2019-04-30T11:17:23.124Z,3.83
2019-04-30T11:19:53.518Z,3.90
2019-04-30T11:22:23.751Z,3.63
2019-04-30T11:24:59.477Z,3.87
2019-04-30T11:27:26.415Z,3.47
2019-04-30T11:30:02.979Z,3.40
2019-04-30T11:32:28.742Z,3.60
2019-04-30T11:34:58.916Z,3.53
2019-04-30T11:37:28.761Z,3.50
2019-04-30T11:39:59.130Z,3.47
2019-04-30T11:42:29.317Z,3.77
2019-04-30T11:44:59.258Z,4.07
2019-04-30T11:47:37.586Z,4.20
2019-04-30T11:50:10.793Z,3.93
2019-04-30T11:52:40.921Z,3.80
2019-04-30T11:55:12.262Z,3.70
2019-04-30T11:57:42.594Z,3.90
2019-04-30T12:00:18.738Z,3.77
2019-04-30T12:02:52.698Z,3.60
2019-04-30T12:05:20.782Z,3.77
2019-04-30T12:08:22.361Z,3.67
2019-04-30T12:11:15.338Z,3.40
2019-04-30T12:13:45.554Z,4.23
2019-04-30T12:16:15.357Z,4.00
2019-04-30T12:18:45.362Z,3.90
2019-04-30T12:21:15.603Z,3.80
2019-04-30T12:23:45.958Z,3.70
2019-04-30T12:26:15.902Z,3.97
2019-04-30T12:28:46.476Z,4.10
2019-04-30T12:31:16.288Z,3.83
2019-04-30T12:33:46.386Z,4.07
2019-04-30T12:36:18.731Z,3.90
2019-04-30T12:38:48.247Z,4.33
2019-04-30T12:41:18.487Z,3.93
2019-04-30T12:43:48.758Z,4.27
2019-04-30T12:46:21.151Z,3.70
2019-04-30T12:49:05.757Z,3.80
2019-04-30T12:51:52.440Z,3.90
2019-04-30T12:54:31.258Z,4.10
2019-04-30T12:57:11.253Z,3.87
2019-04-30T12:59:41.867Z,3.77
2019-04-30T13:02:11.759Z,3.83
2019-04-30T13:04:41.593Z,3.63
2019-04-30T13:07:12.522Z,3.10
2019-04-30T13:09:43.261Z,3.63
2019-04-30T13:12:14.457Z,3.67
2019-04-30T13:14:51.717Z,4.13
2019-04-30T13:17:16.824Z,4.17
2019-04-30T13:19:46.790Z,4.20
2019-04-30T13:22:16.663Z,4.23
2019-04-30T13:24:47.036Z,3.90
2019-04-30T13:27:16.879Z,4.17
2019-04-30T13:30:20.498Z,4.00
2019-04-30T13:33:14.747Z,4.03
2019-04-30T13:35:44.749Z,3.87
2019-04-30T13:38:28.533Z,4.00
2019-04-30T13:41:14.005Z,4.10
2019-04-30T13:44:05.688Z,4.23
2019-04-30T13:46:36.007Z,3.90
2019-04-30T13:49:06.122Z,4.20
2019-04-30T13:51:36.075Z,3.80
2019-04-30T13:54:06.524Z,3.63
2019-04-30T13:56:36.403Z,3.90
2019-04-30T13:59:06.518Z,3.70
2019-04-30T14:01:38.966Z,3.70
2019-04-30T14:04:33.549Z,3.50
2019-04-30T14:07:21.485Z,3.20
2019-04-30T14:09:52.493Z,3.33
2019-04-30T14:12:22.890Z,3.17
2019-04-30T14:14:52.810Z,2.90
2019-04-30T14:17:23.047Z,3.20
2019-04-30T14:19:53.307Z,2.97
2019-04-30T14:22:23.311Z,3.13
2019-04-30T14:24:53.179Z,3.30
2019-04-30T14:27:23.476Z,3.17
2019-04-30T14:29:53.690Z,3.60
2019-04-30T14:32:23.862Z,3.43
2019-04-30T14:34:53.939Z,3.40
2019-04-30T14:37:23.887Z,3.63
2019-04-30T14:39:54.294Z,3.60
2019-04-30T14:42:25.581Z,3.23
2019-04-30T14:45:06.338Z,3.37
2019-04-30T14:47:50.095Z,3.50
2019-04-30T14:50:19.907Z,3.50
2019-04-30T14:53:08.904Z,3.40
2019-04-30T14:56:08.486Z,3.80
2019-04-30T14:58:50.930Z,3.77
2019-04-30T15:01:33.225Z,3.60
2019-04-30T15:04:03.497Z,3.67
2019-04-30T15:06:33.356Z,3.60
2019-04-30T15:09:03.327Z,3.40
2019-04-30T15:11:34.124Z,3.50
2019-04-30T15:14:04.230Z,3.80
2019-04-30T15:16:34.255Z,3.50
2019-04-30T15:19:04.796Z,3.60
2019-04-30T15:21:34.747Z,3.93
2019-04-30T15:24:29.812Z,3.80
2019-04-30T15:26:59.708Z,4.03
2019-04-30T15:29:29.508Z,3.83
2019-04-30T15:31:59.994Z,4.33
2019-04-30T15:34:30.177Z,3.97
2019-04-30T15:37:00.076Z,4.20
2019-04-30T15:39:35.758Z,4.00
2019-04-30T15:42:06.282Z,3.80
2019-04-30T15:44:40.143Z,3.80
2019-04-30T15:47:09.178Z,3.40
2019-04-30T15:49:40.042Z,3.90
2019-04-30T15:52:11.022Z,3.70
2019-04-30T15:54:41.482Z,3.60
2019-04-30T15:57:11.396Z,3.70
2019-04-30T15:59:42.523Z,4.37
2019-04-30T16:02:31.917Z,3.83
2019-04-30T16:05:24.668Z,3.90
2019-04-30T16:08:06.514Z,3.53
2019-04-30T16:10:50.769Z,3.43
2019-04-30T16:13:22.663Z,3.40
2019-04-30T16:15:52.923Z,3.37
2019-04-30T16:18:22.885Z,3.00
2019-04-30T16:20:53.153Z,2.80
2019-04-30T16:23:23.382Z,2.83
2019-04-30T16:25:53.270Z,2.83
2019-04-30T16:28:23.190Z,2.70
2019-04-30T16:30:53.547Z,3.20
2019-04-30T16:33:23.401Z,2.70
2019-04-30T16:35:54.891Z,3.07
2019-04-30T16:38:25.443Z,2.70
2019-04-30T16:40:55.623Z,2.53
2019-04-30T16:43:25.606Z,2.37
2019-04-30T16:45:55.783Z,2.90
2019-04-30T16:48:25.662Z,2.43
2019-04-30T16:50:56.042Z,2.37
2019-04-30T16:53:25.954Z,2.70
2019-04-30T16:55:55.802Z,2.57
2019-04-30T16:58:26.178Z,2.83
2019-04-30T17:00:56.139Z,2.60
2019-04-30T17:03:33.002Z,2.77
2019-04-30T17:06:09.842Z,2.80
2019-04-30T17:08:49.417Z,2.87
2019-04-30T17:11:38.650Z,2.73
2019-04-30T17:14:11.955Z,2.70
2019-04-30T17:16:41.828Z,2.90
2019-04-30T17:19:11.765Z,2.87
2019-04-30T17:21:41.835Z,2.30
2019-04-30T17:24:14.060Z,2.53
2019-04-30T17:26:43.364Z,2.70
2019-04-30T17:29:13.322Z,2.77
2019-04-30T17:31:43.132Z,2.70
2019-04-30T17:34:14.166Z,2.60
2019-04-30T17:36:44.453Z,3.00
2019-04-30T17:39:17.528Z,2.80
2019-04-30T17:41:47.407Z,3.27
2019-04-30T17:44:18.662Z,2.77
2019-04-30T17:46:49.731Z,3.10
2019-04-30T17:49:20.521Z,2.50
2019-04-30T17:51:50.801Z,2.90
2019-04-30T17:54:20.676Z,2.80
2019-04-30T17:56:50.608Z,2.97
2019-04-30T17:59:21.297Z,2.50
2019-04-30T18:01:56.244Z,2.80
2019-04-30T18:04:26.566Z,2.60
2019-04-30T18:06:58.560Z,2.80
2019-04-30T18:09:29.180Z,2.90
2019-04-30T18:11:59.608Z,3.20
2019-04-30T18:14:30.102Z,2.57
2019-04-30T18:17:00.030Z,2.80
2019-04-30T18:19:38.592Z,3.27
2019-04-30T18:22:13.783Z,3.10
2019-04-30T18:25:00.929Z,3.10
2019-04-30T18:27:45.353Z,2.57
2019-04-30T18:30:09.379Z,3.00
2019-04-30T18:32:39.210Z,3.07
2019-04-30T18:35:09.238Z,2.80
2019-04-30T18:37:39.821Z,3.17
2019-04-30T18:40:10.185Z,3.00
2019-04-30T18:42:40.345Z,2.80
2019-04-30T18:45:11.475Z,2.90
2019-04-30T18:47:41.786Z,2.60
2019-04-30T18:50:11.894Z,3.00
2019-04-30T18:52:43.198Z,2.93
2019-04-30T18:55:13.065Z,3.00
2019-04-30T18:57:55.781Z,3.10
2019-04-30T19:00:19.672Z,2.87
2019-04-30T19:02:49.095Z,2.80
2019-04-30T19:05:26.164Z,2.80
2019-04-30T19:08:02.275Z,3.00
2019-04-30T19:10:51.641Z,2.83
2019-04-30T19:13:30.410Z,3.00
2019-04-30T19:16:22.996Z,2.67
2019-04-30T19:19:09.405Z,3.00
2019-04-30T19:21:40.929Z,3.33
2019-04-30T19:24:11.098Z,3.00
2019-04-30T19:26:41.043Z,3.17
2019-04-30T19:29:11.353Z,3.07
2019-04-30T19:31:41.266Z,3.67
2019-04-30T19:34:11.140Z,3.07
2019-04-30T19:36:41.233Z,3.20
2019-04-30T19:39:13.146Z,3.30
2019-04-30T19:41:43.170Z,3.33
2019-04-30T19:44:13.082Z,2.93
2019-04-30T19:46:42.906Z,3.20
2019-04-30T19:49:13.170Z,3.30
2019-04-30T19:51:43.132Z,3.30
2019-04-30T19:54:13.720Z,3.20
2019-04-30T19:56:43.976Z,3.37
2019-04-30T19:59:13.878Z,3.30
2019-04-30T20:01:43.697Z,3.37
2019-04-30T20:04:13.893Z,3.87
2019-04-30T20:06:43.863Z,3.37
2019-04-30T20:09:14.242Z,3.53
2019-04-30T20:11:44.354Z,3.97
2019-04-30T20:14:14.258Z,3.80
2019-04-30T20:16:44.198Z,3.93
2019-04-30T20:19:14.443Z,4.00
2019-04-30T20:21:50.443Z,3.83
2019-04-30T20:24:16.357Z,3.63
2019-04-30T20:26:46.287Z,3.70
2019-04-30T20:29:16.203Z,4.13
2019-04-30T20:31:46.342Z,3.87
2019-04-30T20:34:16.268Z,4.57
2019-04-30T20:36:46.106Z,4.33
2019-04-30T20:39:24.954Z,3.90
2019-04-30T20:41:55.833Z,4.00
2019-04-30T20:44:25.705Z,4.90
2019-04-30T20:46:55.874Z,4.50
2019-04-30T20:49:25.790Z,5.00
2019-04-30T20:51:56.191Z,4.30
2019-04-30T20:54:28.962Z,4.43
2019-04-30T20:56:58.961Z,4.90
2019-04-30T20:59:29.222Z,3.90
2019-04-30T21:01:59.054Z,3.97
2019-04-30T21:04:28.935Z,4.87
2019-04-30T21:06:59.555Z,5.10
2019-04-30T21:09:30.097Z,6.23
2019-04-30T21:12:00.251Z,4.00
2019-04-30T21:14:30.133Z,5.00
2019-04-30T21:16:59.967Z,5.10
2019-04-30T21:19:29.974Z,5.10
2019-04-30T21:21:59.890Z,5.37
2019-04-30T21:24:30.418Z,5.57
2019-04-30T21:27:00.409Z,5.23
2019-04-30T21:29:30.278Z,5.27
2019-04-30T21:32:31.147Z,5.40
2019-04-30T21:35:18.481Z,5.50
2019-04-30T21:37:48.787Z,5.23
2019-04-30T21:40:19.614Z,5.33
2019-04-30T21:42:49.823Z,5.37
2019-04-30T21:45:19.920Z,5.57
2019-04-30T21:47:56.162Z,5.00
2019-04-30T21:50:21.758Z,5.37
2019-04-30T21:52:51.682Z,5.23
2019-04-30T21:55:21.754Z,5.67
2019-04-30T21:57:51.878Z,5.40
2019-04-30T22:00:40.238Z,5.10
2019-04-30T22:03:10.780Z,5.70
2019-04-30T22:05:40.751Z,5.33
2019-04-30T22:08:10.686Z,5.20
2019-04-30T22:10:41.318Z,5.47
2019-04-30T22:13:11.238Z,5.37
2019-04-30T22:15:41.143Z,5.47
2019-04-30T22:18:11.147Z,5.10
2019-04-30T22:20:41.001Z,5.57
2019-04-30T22:23:10.880Z,5.23
2019-04-30T22:25:41.543Z,5.83
2019-04-30T22:28:11.420Z,6.03
2019-04-30T22:30:41.333Z,6.10
2019-04-30T22:33:11.388Z,6.53
2019-04-30T22:35:48.085Z,6.10
2019-04-30T22:38:21.447Z,5.90
2019-04-30T22:40:51.756Z,5.57
2019-04-30T22:43:21.714Z,5.90
2019-04-30T22:45:59.610Z,6.50
2019-04-30T22:48:29.759Z,6.43
2019-04-30T22:50:59.667Z,5.87
2019-04-30T22:53:29.954Z,5.90
2019-04-30T22:55:59.915Z,5.90
2019-04-30T22:58:29.749Z,6.47
2019-04-30T23:01:20.698Z,5.83
2019-04-30T23:03:52.095Z,6.50
2019-04-30T23:06:22.287Z,6.70
2019-04-30T23:08:52.206Z,5.87
2019-04-30T23:11:22.373Z,5.80
2019-04-30T23:13:52.653Z,6.13
2019-04-30T23:16:22.523Z,5.83
2019-04-30T23:18:52.422Z,6.70
2019-04-30T23:21:22.704Z,6.70
2019-04-30T23:23:52.605Z,6.93
2019-04-30T23:26:22.775Z,6.60
2019-04-30T23:28:52.793Z,6.63
2019-04-30T23:31:22.834Z,6.97
2019-04-30T23:33:52.683Z,6.90
2019-04-30T23:36:22.821Z,6.60
2019-04-30T23:38:52.672Z,6.93
2019-04-30T23:41:22.797Z,6.43
2019-04-30T23:43:54.959Z,6.40
2019-04-30T23:46:24.623Z,6.77
2019-04-30T23:48:54.723Z,6.77
2019-04-30T23:51:24.707Z,7.27
2019-04-30T23:53:54.775Z,6.80
2019-04-30T23:56:25.597Z,7.00
2019-04-30T23:58:55.522Z,6.50
